createdAt,value
2022-08-03T00:02:13.575Z,99621.97
2022-08-03T00:17:16.189Z,99613.44
2022-08-03T00:32:18.141Z,99609.91
2022-08-03T00:47:24.533Z,99598.13
2022-08-03T01:02:27.648Z,99597.59
2022-08-03T01:17:40.273Z,99600.09
2022-08-03T01:33:01.016Z,99600.34
2022-08-03T01:48:06.588Z,99597.84
2022-08-03T02:03:11.909Z,99610.84
2022-08-03T02:18:15.428Z,99617.91
2022-08-03T02:33:27.616Z,99615.34
2022-08-03T02:48:33.216Z,99629.19
2022-08-03T03:03:39.976Z,99626.19
2022-08-03T03:18:49.990Z,99624.38
2022-08-03T03:33:51.957Z,99634.97
2022-08-03T03:48:54.181Z,99629.47
2022-08-03T04:03:56.098Z,99638.50
2022-08-03T04:19:10.717Z,99644.69
2022-08-03T04:34:12.795Z,99643.31
2022-08-03T04:49:15.340Z,99651.59
2022-08-03T05:04:17.340Z,99655.78
2022-08-03T05:19:19.317Z,99666.34
2022-08-03T05:34:21.183Z,99676.69
2022-08-03T05:49:23.812Z,99700.66
2022-08-03T06:04:25.709Z,99697.44
2022-08-03T06:19:27.720Z,99707.13
2022-08-03T06:34:32.733Z,99720.78
2022-08-03T06:49:38.677Z,99731.59
2022-08-03T07:04:40.667Z,99732.41
2022-08-03T07:19:42.601Z,99743.03
2022-08-03T07:34:44.481Z,99748.06
2022-08-03T07:49:46.697Z,99753.09
2022-08-03T08:04:48.598Z,99762.34
2022-08-03T08:19:51.749Z,99771.44
2022-08-03T08:34:55.486Z,99781.91
2022-08-03T08:50:09.914Z,99783.50
2022-08-03T09:05:18.228Z,99773.44
2022-08-03T09:20:22.010Z,99767.13
2022-08-03T09:35:51.558Z,99772.09
2022-08-03T09:50:57.026Z,99777.97
2022-08-03T10:06:15.611Z,99774.63
2022-08-03T10:21:19.984Z,99783.47
2022-08-03T10:36:24.712Z,99783.56
2022-08-03T10:51:32.405Z,99768.69
2022-08-03T11:06:37.278Z,99785.44
2022-08-03T11:21:52.367Z,99778.50
2022-08-03T11:37:21.851Z,99770.47
2022-08-03T11:52:27.153Z,99771.50
2022-08-03T12:08:03.128Z,99773.72
2022-08-03T12:22:53.249Z,99773.63
2022-08-03T12:37:55.277Z,99745.00
2022-08-03T12:52:58.858Z,99732.91
2022-08-03T13:08:00.947Z,99718.31
2022-08-03T13:23:03.134Z,99714.25
2022-08-03T13:38:05.075Z,99730.44
2022-08-03T13:53:07.209Z,99754.53
2022-08-03T14:08:09.286Z,99758.06
2022-08-03T14:23:11.291Z,99777.75
2022-08-03T14:38:15.074Z,99784.06
2022-08-03T14:53:20.131Z,99781.94
2022-08-03T15:08:23.645Z,99762.34
2022-08-03T15:23:26.578Z,99770.56
2022-08-03T15:38:28.544Z,99772.13
2022-08-03T15:53:30.645Z,99764.97
2022-08-03T16:08:32.720Z,99760.94
2022-08-03T16:23:37.707Z,99776.88
2022-08-03T16:38:40.000Z,99786.34
2022-08-03T16:54:05.798Z,99806.59
2022-08-03T17:09:09.833Z,99803.22
2022-08-03T17:24:31.441Z,99820.97
2022-08-03T17:55:56.534Z,99863.09
2022-08-03T18:10:49.697Z,99866.41
2022-08-03T18:25:57.908Z,99879.78
2022-08-03T18:41:00.190Z,99880.03
2022-08-03T18:56:24.472Z,99875.25
2022-08-03T19:12:12.553Z,99876.56
2022-08-03T19:27:01.449Z,99874.25
2022-08-03T19:57:37.253Z,99864.38
2022-08-03T20:12:39.798Z,99876.97
2022-08-03T20:28:06.917Z,99877.31
2022-08-03T20:43:07.349Z,99869.28
2022-08-03T20:58:14.449Z,99849.22
2022-08-03T21:13:02.803Z,99877.72
2022-08-03T21:13:28.326Z,99863.56
2022-08-03T21:28:30.401Z,99861.28
2022-08-03T21:43:32.280Z,99871.34
2022-08-03T21:58:44.997Z,99870.44
2022-08-03T22:13:53.252Z,99867.16
2022-08-03T22:28:57.536Z,99879.56
2022-08-03T22:43:59.787Z,99890.63
2022-08-03T22:59:40.729Z,99899.41
2022-08-03T23:14:41.544Z,99885.56
2022-08-03T23:29:44.090Z,99873.50
2022-08-03T23:44:46.792Z,99883.59
